KJRB/JRB METAR and TAF weather

Enter ICAO airport designator
Station Type Date Time Source
KJRB METAR 2019/10/21 02:12 UTC NOAA

KJRB 210212Z AUTO 03012KT SCT012 BKN045 12/11 A2999 RMK AO2 PWINO


Station Type Date Time Source
KJRB Decoded METAR 2019/10/21 02:12 UTC NOAA

Station name not available
Oct 20, 2019 - 10:12 PM EDT / 2019.10.21 0212 UTC
Wind: from the NNE (030 degrees) at 14 MPH (12 KT):0
Sky conditions: mostly cloudy
Temperature: 53 F (12 C)
Dew Point: 51 F (11 C)
Relative Humidity: 93%
Pressure (altimeter): 29.99 in. Hg (1015 hPa)
ob: KJRB 210212Z AUTO 03012KT SCT012 BKN045 12/11 A2999 RMK AO2 PWINO
cycle: 2

Station Type Date Time Source
KJRB TAF UTC NOAA

Error!

Example: see airport list